createdAt,value
2018-04-14T00:02:26.215Z,95.32
2018-04-14T00:04:54.474Z,94.93
2018-04-14T00:07:23.504Z,94.84
2018-04-14T00:09:51.747Z,94.95
2018-04-14T00:12:20.009Z,93.72
2018-04-14T00:14:48.250Z,94.54
2018-04-14T00:17:16.514Z,94.53
2018-04-14T00:19:44.766Z,95.08
2018-04-14T00:22:13.043Z,94.88
2018-04-14T00:24:41.302Z,94.76
2018-04-14T00:27:09.549Z,94.84
2018-04-14T00:29:37.819Z,94.80
2018-04-14T00:32:06.062Z,93.70
2018-04-14T00:34:34.338Z,94.51
2018-04-14T00:37:02.603Z,95.10
2018-04-14T00:39:30.855Z,95.32
2018-04-14T00:41:59.143Z,95.36
2018-04-14T00:44:27.399Z,95.21
2018-04-14T00:46:56.415Z,95.39
2018-04-14T00:49:24.779Z,95.27
2018-04-14T00:51:53.048Z,95.52
2018-04-14T00:54:22.066Z,94.47
2018-04-14T00:56:50.315Z,94.37
2018-04-14T00:59:19.333Z,94.85
2018-04-14T01:01:48.355Z,95.06
2018-04-14T01:04:16.615Z,94.94
2018-04-14T01:06:44.880Z,92.82
2018-04-14T01:09:13.903Z,92.47
2018-04-14T01:11:42.166Z,93.90
2018-04-14T01:14:11.196Z,93.28
2018-04-14T01:16:39.450Z,93.77
2018-04-14T01:19:08.474Z,94.95
2018-04-14T01:21:36.722Z,94.99
2018-04-14T01:24:05.756Z,95.25
2018-04-14T01:26:34.014Z,95.24
2018-04-14T01:29:02.274Z,95.19
2018-04-14T01:31:31.289Z,95.35
2018-04-14T01:33:59.554Z,95.23
2018-04-14T01:36:28.554Z,95.44
2018-04-14T01:38:57.583Z,95.58
2018-04-14T01:41:25.835Z,95.35
2018-04-14T01:43:54.850Z,95.27
2018-04-14T01:46:23.318Z,95.44
2018-04-14T01:48:51.579Z,94.57
2018-04-14T01:51:19.823Z,94.86
2018-04-14T01:53:49.336Z,94.91
2018-04-14T01:56:17.586Z,94.51
2018-04-14T01:58:45.856Z,94.62
2018-04-14T02:01:14.103Z,94.57
2018-04-14T02:03:42.351Z,94.84
2018-04-14T02:06:10.616Z,94.83
2018-04-14T02:08:38.859Z,95.04
2018-04-14T02:11:07.887Z,95.08
2018-04-14T02:13:36.148Z,95.00
2018-04-14T02:16:06.424Z,95.03
2018-04-14T02:18:34.687Z,95.29
2018-04-14T02:21:02.972Z,95.64
2018-04-14T02:23:31.227Z,95.48
2018-04-14T02:25:59.488Z,95.33
2018-04-14T02:28:28.504Z,95.50
2018-04-14T02:30:56.766Z,95.66
2018-04-14T02:33:25.789Z,95.60
2018-04-14T02:35:54.050Z,95.33
2018-04-14T02:38:23.065Z,95.09
2018-04-14T02:40:51.327Z,95.35
2018-04-14T02:43:20.356Z,95.49
2018-04-14T02:45:48.610Z,95.51
2018-04-14T02:48:16.878Z,95.52
2018-04-14T02:50:45.887Z,95.39
2018-04-14T02:53:14.157Z,95.20
2018-04-14T02:55:43.172Z,95.22
2018-04-14T02:58:11.446Z,93.75
2018-04-14T03:00:40.458Z,94.61
2018-04-14T03:03:08.712Z,94.86
2018-04-14T03:05:37.718Z,95.02
2018-04-14T03:08:06.757Z,95.26
2018-04-14T03:10:35.015Z,95.51
2018-04-14T03:13:03.275Z,95.38
2018-04-14T03:15:32.298Z,95.49
2018-04-14T03:18:00.555Z,95.47
2018-04-14T03:20:29.572Z,95.52
2018-04-14T03:22:57.826Z,95.25
2018-04-14T03:25:26.852Z,95.26
2018-04-14T03:27:55.110Z,95.29
2018-04-14T03:30:24.120Z,95.47
2018-04-14T03:32:52.380Z,95.38
2018-04-14T03:35:21.399Z,95.30
2018-04-14T03:37:49.644Z,94.91
2018-04-14T03:40:17.914Z,94.92
2018-04-14T03:42:46.158Z,95.09
2018-04-14T03:45:14.423Z,95.00
2018-04-14T03:47:42.676Z,95.21
2018-04-14T03:50:11.704Z,95.34
2018-04-14T03:52:39.950Z,95.32
2018-04-14T03:55:08.975Z,95.82
2018-04-14T03:57:37.219Z,95.87
2018-04-14T04:00:05.474Z,95.90
2018-04-14T04:02:34.483Z,95.98
2018-04-14T04:05:02.756Z,96.13
2018-04-14T04:07:30.994Z,96.14
2018-04-14T04:09:59.263Z,96.16
2018-04-14T04:12:28.771Z,95.37
2018-04-14T04:14:57.795Z,95.78
2018-04-14T04:17:26.098Z,95.96
2018-04-14T04:20:12.243Z,95.92
2018-04-14T04:22:58.507Z,95.75
2018-04-14T04:25:41.672Z,95.35
2018-04-14T04:28:09.983Z,94.04
2018-04-14T04:30:40.259Z,94.56
2018-04-14T04:33:08.543Z,94.74
2018-04-14T04:35:37.574Z,94.94
2018-04-14T04:38:06.523Z,95.11
2018-04-14T04:40:35.548Z,94.96
2018-04-14T04:43:03.802Z,94.67
2018-04-14T04:45:32.823Z,94.33
2018-04-14T04:48:01.087Z,94.56
2018-04-14T04:50:30.110Z,94.45
2018-04-14T04:52:58.379Z,94.38
2018-04-14T04:55:26.640Z,94.00
2018-04-14T04:57:55.652Z,93.53
2018-04-14T05:00:23.924Z,93.24
2018-04-14T05:02:52.946Z,93.57
2018-04-14T05:05:21.194Z,92.64
2018-04-14T05:07:50.411Z,92.76
2018-04-14T05:10:19.503Z,92.96
2018-04-14T05:12:48.547Z,92.70
2018-04-14T05:15:17.527Z,92.46
2018-04-14T05:17:45.793Z,92.65
2018-04-14T05:20:14.035Z,91.64
2018-04-14T05:22:42.315Z,91.55
2018-04-14T05:25:10.594Z,91.54
2018-04-14T05:27:38.852Z,91.10
2018-04-14T05:30:07.103Z,91.29
2018-04-14T05:32:35.462Z,91.10
2018-04-14T05:35:04.473Z,90.73
2018-04-14T05:37:32.977Z,72.43
2018-04-14T05:40:01.219Z,54.66
2018-04-14T05:42:30.328Z,44.69
2018-04-14T05:45:00.670Z,40.31
2018-04-14T05:47:28.939Z,36.98
2018-04-14T05:49:57.943Z,36.63
2018-04-14T05:52:26.195Z,31.02
2018-04-14T05:54:54.442Z,32.51
2018-04-14T05:57:22.695Z,28.76
2018-04-14T05:59:50.951Z,29.99
2018-04-14T06:02:19.969Z,26.27
2018-04-14T06:04:48.234Z,27.44
2018-04-14T06:07:16.485Z,26.78
2018-04-14T06:09:45.510Z,26.60
2018-04-14T06:12:13.775Z,28.12
2018-04-14T06:14:42.036Z,25.97
2018-04-14T06:17:10.284Z,25.60
2018-04-14T06:19:38.552Z,27.53
2018-04-14T06:22:06.826Z,24.91
2018-04-14T06:24:35.824Z,27.01
2018-04-14T06:27:04.090Z,25.72
2018-04-14T06:29:32.361Z,23.26
2018-04-14T06:32:01.372Z,24.27
2018-04-14T06:34:29.638Z,24.93
2018-04-14T06:36:59.890Z,24.69
2018-04-14T06:39:28.150Z,23.25
2018-04-14T06:41:57.171Z,26.62
2018-04-14T06:44:25.550Z,27.15
2018-04-14T06:46:53.794Z,27.56
2018-04-14T06:49:22.043Z,28.78
2018-04-14T06:51:50.319Z,27.73
2018-04-14T06:54:18.564Z,29.88
2018-04-14T06:56:46.822Z,28.97
2018-04-14T06:59:16.764Z,25.06
2018-04-14T07:01:45.025Z,22.49
2018-04-14T07:04:14.037Z,20.07
2018-04-14T07:06:42.306Z,18.98
2018-04-14T07:09:11.325Z,18.43
2018-04-14T07:11:39.607Z,17.25
2018-04-14T07:14:07.851Z,18.53
2018-04-14T07:16:36.111Z,20.35
2018-04-14T07:19:05.559Z,22.39
2018-04-14T07:21:33.826Z,21.95
2018-04-14T07:24:02.842Z,21.11
2018-04-14T07:26:31.111Z,23.14
2018-04-14T07:29:00.131Z,21.93
2018-04-14T07:31:28.396Z,23.66
2018-04-14T07:33:57.499Z,22.45
2018-04-14T07:36:25.762Z,21.95
2018-04-14T07:38:54.788Z,23.14
2018-04-14T07:41:23.056Z,23.65
2018-04-14T07:43:52.080Z,23.12
2018-04-14T07:46:20.348Z,22.80
2018-04-14T07:48:48.616Z,20.61
2018-04-14T07:51:16.885Z,21.59
2018-04-14T07:53:45.908Z,21.34
2018-04-14T07:56:14.174Z,22.47
2018-04-14T07:58:42.423Z,20.65
2018-04-14T08:01:11.091Z,19.55
2018-04-14T08:03:39.351Z,24.32
2018-04-14T08:06:07.618Z,25.04
2018-04-14T08:08:35.872Z,25.53
2018-04-14T08:11:05.044Z,23.62
2018-04-14T08:13:33.291Z,21.22
2018-04-14T08:16:01.545Z,18.73
2018-04-14T08:18:29.811Z,17.85
2018-04-14T08:20:59.139Z,16.03
2018-04-14T08:23:27.420Z,21.51
2018-04-14T08:25:55.790Z,21.04
2018-04-14T08:28:24.047Z,18.75
2018-04-14T08:30:52.305Z,18.62
2018-04-14T08:33:20.568Z,21.29
2018-04-14T08:35:48.813Z,21.69
2018-04-14T08:38:17.078Z,23.00
2018-04-14T08:40:46.107Z,20.18
2018-04-14T08:43:14.379Z,17.78
2018-04-14T08:45:43.383Z,19.07
2018-04-14T08:48:11.634Z,19.82
2018-04-14T08:50:40.661Z,19.30
2018-04-14T08:53:08.924Z,19.98
2018-04-14T08:55:37.178Z,19.91
2018-04-14T08:58:05.454Z,20.66
2018-04-14T09:00:33.703Z,15.70
2018-04-14T09:03:02.724Z,17.33
2018-04-14T09:05:30.988Z,18.15
2018-04-14T09:07:59.236Z,17.75
2018-04-14T09:10:27.502Z,16.75
2018-04-14T09:12:55.911Z,14.26
2018-04-14T09:15:24.186Z,13.69
2018-04-14T09:17:52.429Z,17.03
2018-04-14T09:20:20.682Z,18.11
2018-04-14T09:22:48.947Z,15.82
2018-04-14T09:25:17.214Z,20.04
2018-04-14T09:27:45.466Z,13.98
2018-04-14T09:30:14.487Z,14.90
2018-04-14T09:32:42.734Z,18.40
2018-04-14T09:35:11.769Z,18.07
2018-04-14T09:37:40.012Z,16.96
2018-04-14T09:40:09.052Z,18.29
2018-04-14T09:42:37.310Z,16.46
2018-04-14T09:45:05.572Z,15.33
2018-04-14T09:47:34.594Z,16.36
2018-04-14T09:50:02.860Z,20.21
2018-04-14T09:52:31.875Z,16.93
2018-04-14T09:55:00.134Z,15.87
2018-04-14T09:57:29.154Z,13.56
2018-04-14T09:59:57.419Z,17.78
2018-04-14T10:02:26.450Z,20.19
2018-04-14T10:04:54.700Z,18.83
2018-04-14T10:07:22.983Z,14.18
2018-04-14T10:09:51.993Z,17.55
2018-04-14T10:12:20.262Z,14.42
2018-04-14T10:14:49.295Z,15.87
2018-04-14T10:17:17.582Z,16.15
2018-04-14T10:19:45.807Z,18.54
2018-04-14T10:22:14.840Z,19.16
2018-04-14T10:24:43.087Z,17.74
2018-04-14T10:27:12.124Z,18.77
2018-04-14T10:29:40.375Z,18.00
2018-04-14T10:32:08.639Z,19.47
2018-04-14T10:34:37.665Z,17.05
2018-04-14T10:37:06.018Z,20.25
2018-04-14T10:39:35.040Z,17.34
2018-04-14T10:42:03.312Z,19.40
2018-04-14T10:44:31.570Z,15.00
2018-04-14T10:47:01.077Z,12.46
2018-04-14T10:49:29.341Z,19.01
2018-04-14T10:51:57.589Z,14.59
2018-04-14T10:54:27.870Z,16.58
2018-04-14T10:56:56.127Z,10.72
2018-04-14T10:59:24.392Z,15.92
2018-04-14T11:01:52.659Z,18.80
2018-04-14T11:04:20.913Z,17.84
2018-04-14T11:06:49.163Z,16.91
2018-04-14T11:09:17.449Z,18.61
2018-04-14T11:11:45.710Z,21.27
2018-04-14T11:14:13.988Z,19.93
2018-04-14T11:16:42.254Z,15.28
2018-04-14T11:19:10.522Z,18.50
2018-04-14T11:21:38.791Z,20.75
2018-04-14T11:24:07.055Z,19.47
2018-04-14T11:26:35.311Z,16.75
2018-04-14T11:29:03.588Z,17.99
2018-04-14T11:31:31.843Z,22.26
2018-04-14T11:34:00.091Z,22.60
2018-04-14T11:36:29.190Z,15.24
2018-04-14T11:38:58.122Z,19.01
2018-04-14T11:41:26.375Z,18.66
2018-04-14T11:43:54.647Z,18.59
2018-04-14T11:46:22.906Z,18.79
2018-04-14T11:48:51.924Z,19.89
2018-04-14T11:51:20.191Z,18.66
2018-04-14T11:53:48.443Z,20.21
2018-04-14T11:56:16.711Z,23.43
2018-04-14T11:58:45.068Z,20.25
2018-04-14T12:01:13.343Z,20.04
2018-04-14T12:03:41.653Z,17.71
2018-04-14T12:06:09.871Z,16.68
2018-04-14T12:08:38.897Z,15.25
2018-04-14T12:11:07.163Z,14.89
2018-04-14T12:13:35.411Z,12.54
2018-04-14T12:16:04.445Z,17.30
2018-04-14T12:18:32.696Z,15.66
2018-04-14T12:21:01.721Z,14.98
2018-04-14T12:23:29.973Z,16.78
2018-04-14T12:25:59.139Z,19.63
2018-04-14T12:28:27.447Z,16.30
2018-04-14T12:30:55.647Z,22.21
2018-04-14T12:33:24.679Z,20.53
2018-04-14T12:35:52.941Z,18.72
2018-04-14T12:38:21.214Z,20.80
2018-04-14T12:40:49.481Z,21.91
2018-04-14T12:43:18.496Z,20.47
2018-04-14T12:45:46.759Z,22.89
2018-04-14T12:48:15.783Z,22.02
2018-04-14T12:50:44.026Z,22.53
2018-04-14T12:53:13.051Z,18.63
2018-04-14T12:55:41.317Z,19.06
2018-04-14T12:58:10.349Z,22.84
2018-04-14T13:00:38.599Z,22.75
2018-04-14T13:03:07.615Z,23.10
2018-04-14T13:05:35.999Z,24.66
2018-04-14T13:08:04.267Z,24.85
2018-04-14T13:10:32.575Z,25.73
2018-04-14T13:13:00.840Z,26.06
2018-04-14T13:15:29.120Z,28.24
2018-04-14T13:17:57.376Z,23.90
2018-04-14T13:20:26.387Z,24.61
2018-04-14T13:22:54.658Z,28.24
2018-04-14T13:25:23.696Z,26.75
2018-04-14T13:27:51.961Z,26.40
2018-04-14T13:30:20.330Z,26.76
2018-04-14T13:32:48.915Z,28.85
2018-04-14T13:35:17.153Z,29.04
2018-04-14T13:37:45.407Z,28.00
2018-04-14T13:40:13.669Z,26.25
2018-04-14T13:42:41.924Z,28.16
2018-04-14T13:45:10.953Z,29.32
2018-04-14T13:47:39.216Z,28.77
2018-04-14T13:50:07.491Z,29.61
2018-04-14T13:52:37.768Z,30.67
2018-04-14T13:55:06.023Z,28.79
2018-04-14T13:57:34.290Z,30.55
2018-04-14T14:00:02.544Z,28.81
2018-04-14T14:02:31.562Z,31.65
2018-04-14T14:04:59.827Z,28.84
2018-04-14T14:07:28.848Z,29.61
2018-04-14T14:09:57.099Z,29.28
2018-04-14T14:12:26.135Z,29.63
2018-04-14T14:14:54.394Z,29.02
2018-04-14T14:17:22.665Z,28.15
2018-04-14T14:19:51.687Z,28.64
2018-04-14T14:22:19.943Z,30.40
2018-04-14T14:24:48.967Z,30.41
2018-04-14T14:27:17.219Z,29.73
2018-04-14T14:29:46.241Z,31.52
2018-04-14T14:32:14.493Z,28.79
2018-04-14T14:34:43.318Z,28.50
2018-04-14T14:37:11.572Z,29.73
2018-04-14T14:39:40.606Z,32.16
2018-04-14T14:42:08.859Z,30.04
2018-04-14T14:44:37.263Z,30.96
2018-04-14T14:47:05.523Z,30.57
2018-04-14T14:49:34.547Z,31.54
2018-04-14T14:52:02.799Z,33.08
2018-04-14T14:54:31.828Z,30.55
2018-04-14T14:57:00.075Z,28.86
2018-04-14T14:59:29.107Z,30.74
2018-04-14T15:01:57.355Z,31.96
2018-04-14T15:04:25.654Z,28.03
2018-04-14T15:06:54.567Z,29.44
2018-04-14T15:09:22.837Z,27.77
2018-04-14T15:11:51.095Z,32.88
2018-04-14T15:14:19.358Z,32.50
2018-04-14T15:16:47.990Z,29.64
2018-04-14T15:19:16.243Z,29.39
2018-04-14T15:21:45.260Z,30.81
2018-04-14T15:24:13.533Z,28.39
2018-04-14T15:26:41.779Z,31.69
2018-04-14T15:29:10.026Z,29.47
2018-04-14T15:31:38.404Z,26.91
2018-04-14T15:34:06.653Z,27.06
2018-04-14T15:36:34.907Z,28.61
2018-04-14T15:39:03.935Z,30.66
2018-04-14T15:41:32.188Z,30.86
2018-04-14T15:44:01.212Z,28.29
2018-04-14T15:46:29.479Z,31.35
2018-04-14T15:48:57.897Z,30.98
2018-04-14T15:51:26.142Z,30.62
2018-04-14T15:53:54.395Z,28.84
2018-04-14T15:56:22.659Z,29.35
2018-04-14T15:58:50.918Z,30.16
2018-04-14T16:01:19.183Z,29.77
2018-04-14T16:03:47.493Z,29.24
2018-04-14T16:06:16.467Z,29.80
2018-04-14T16:08:44.719Z,31.52
2018-04-14T16:11:13.795Z,29.02
2018-04-14T16:13:42.000Z,29.52
2018-04-14T16:16:10.262Z,29.78
2018-04-14T16:18:40.530Z,29.93
2018-04-14T16:21:08.784Z,31.14
2018-04-14T16:23:37.865Z,31.63
2018-04-14T16:26:06.076Z,34.08
2018-04-14T16:28:34.344Z,31.26
2018-04-14T16:31:03.360Z,31.73
2018-04-14T16:33:31.622Z,31.50
2018-04-14T16:36:00.723Z,33.88
2018-04-14T16:38:29.869Z,33.48
2018-04-14T16:40:58.121Z,35.47
2018-04-14T16:43:26.363Z,35.52
2018-04-14T16:45:54.623Z,37.48
2018-04-14T16:48:22.896Z,37.97
2018-04-14T16:50:51.156Z,35.28
2018-04-14T16:53:19.416Z,35.35
2018-04-14T16:55:47.804Z,36.80
2018-04-14T16:58:16.060Z,38.29
2018-04-14T17:00:45.083Z,37.14
2018-04-14T17:03:13.333Z,37.75
2018-04-14T17:05:42.495Z,37.78
2018-04-14T17:08:10.746Z,39.40
2018-04-14T17:10:39.000Z,39.15
2018-04-14T17:13:08.027Z,38.56
2018-04-14T17:15:36.286Z,40.80
2018-04-14T17:18:04.535Z,40.87
2018-04-14T17:20:32.798Z,39.55
2018-04-14T17:23:01.052Z,41.68
2018-04-14T17:25:29.314Z,41.14
2018-04-14T17:27:57.569Z,42.00
2018-04-14T17:30:25.831Z,42.73
2018-04-14T17:32:54.087Z,43.98
2018-04-14T17:35:22.430Z,44.64
2018-04-14T17:37:51.450Z,44.76
2018-04-14T17:40:19.713Z,46.03
2018-04-14T17:42:47.965Z,45.22
2018-04-14T17:45:16.231Z,46.14
2018-04-14T17:47:44.480Z,46.32
2018-04-14T17:50:12.750Z,46.05
2018-04-14T17:52:41.016Z,46.25
2018-04-14T17:55:09.264Z,46.98
2018-04-14T17:57:37.527Z,47.00
2018-04-14T18:00:05.789Z,47.65
2018-04-14T18:02:34.059Z,48.21
2018-04-14T18:05:02.289Z,48.26
2018-04-14T18:07:30.543Z,48.89
2018-04-14T18:09:58.796Z,48.59
2018-04-14T18:12:27.068Z,49.68
2018-04-14T18:14:55.318Z,50.67
2018-04-14T18:17:24.407Z,50.88
2018-04-14T18:19:52.599Z,51.02
2018-04-14T18:22:21.624Z,51.99
2018-04-14T18:24:50.831Z,51.90
2018-04-14T18:27:19.092Z,52.70
2018-04-14T18:29:48.123Z,52.93
2018-04-14T18:32:16.370Z,52.64
2018-04-14T18:34:45.279Z,54.53
2018-04-14T18:37:13.534Z,55.45
2018-04-14T18:39:42.545Z,55.65
2018-04-14T18:42:10.910Z,57.76
2018-04-14T18:44:39.937Z,58.06
2018-04-14T18:47:08.178Z,59.13
2018-04-14T18:49:36.443Z,57.95
2018-04-14T18:52:04.702Z,57.13
2018-04-14T18:54:32.959Z,60.11
2018-04-14T18:57:01.244Z,59.43
2018-04-14T18:59:29.514Z,58.24
2018-04-14T19:01:57.760Z,58.27
2018-04-14T19:04:26.018Z,60.25
2018-04-14T19:06:54.281Z,59.91
2018-04-14T19:09:22.542Z,59.28
2018-04-14T19:11:50.800Z,59.23
2018-04-14T19:14:19.824Z,58.24
2018-04-14T19:16:49.049Z,59.92
2018-04-14T19:19:17.303Z,57.94
2018-04-14T19:21:45.581Z,61.84
2018-04-14T19:24:13.844Z,59.05
2018-04-14T19:26:42.856Z,59.53
2018-04-14T19:29:11.121Z,60.22
2018-04-14T19:31:40.224Z,60.48
2018-04-14T19:34:08.502Z,61.56
2018-04-14T19:36:37.607Z,63.76
2018-04-14T19:39:06.567Z,64.62
2018-04-14T19:41:34.824Z,63.80
2018-04-14T19:44:03.091Z,65.70
2018-04-14T19:46:32.104Z,65.82
2018-04-14T19:49:00.366Z,66.43
2018-04-14T19:51:28.610Z,66.96
2018-04-14T19:53:57.636Z,66.56
2018-04-14T19:56:25.945Z,66.01
2018-04-14T19:58:54.903Z,65.98
2018-04-14T20:01:23.166Z,67.10
2018-04-14T20:03:52.189Z,67.59
2018-04-14T20:06:20.456Z,69.40
2018-04-14T20:08:49.161Z,67.89
2018-04-14T20:11:17.423Z,69.09
2018-04-14T20:13:46.431Z,69.73
2018-04-14T20:16:14.693Z,68.06
2018-04-14T20:18:43.702Z,71.12
2018-04-14T20:21:11.950Z,70.36
2018-04-14T20:23:40.195Z,70.57
2018-04-14T20:26:08.453Z,69.58
2018-04-14T20:28:36.692Z,69.90
2018-04-14T20:31:04.951Z,69.92
2018-04-14T20:33:33.183Z,70.70
2018-04-14T20:36:01.435Z,71.82
2018-04-14T20:38:29.687Z,71.74
2018-04-14T20:40:58.569Z,73.00
2018-04-14T20:43:27.526Z,71.82
2018-04-14T20:45:56.554Z,72.91
2018-04-14T20:48:24.800Z,72.64
2018-04-14T20:50:53.822Z,71.95
2018-04-14T20:53:22.071Z,73.13
2018-04-14T20:55:51.082Z,73.39
2018-04-14T20:58:20.106Z,73.48
2018-04-14T21:00:48.346Z,73.83
2018-04-14T21:03:17.376Z,73.66
2018-04-14T21:05:45.661Z,74.58
2018-04-14T21:08:13.910Z,74.94
2018-04-14T21:10:42.914Z,74.94
2018-04-14T21:13:12.529Z,74.82
2018-04-14T21:15:40.784Z,75.38
2018-04-14T21:18:09.035Z,75.33
2018-04-14T21:20:37.286Z,75.80
2018-04-14T21:23:05.545Z,76.10
2018-04-14T21:25:34.575Z,76.27
2018-04-14T21:28:02.822Z,76.54
2018-04-14T21:30:31.944Z,76.67
2018-04-14T21:33:00.203Z,76.84
2018-04-14T21:35:29.210Z,77.09
2018-04-14T21:37:57.471Z,77.37
2018-04-14T21:40:26.482Z,76.90
2018-04-14T21:42:55.495Z,77.68
2018-04-14T21:45:23.734Z,78.09
2018-04-14T21:47:52.018Z,78.46
2018-04-14T21:50:20.267Z,79.41
2018-04-14T21:52:48.523Z,79.28
2018-04-14T21:55:18.435Z,79.78
2018-04-14T22:00:21.947Z,79.74
2018-04-14T22:02:50.210Z,78.79
2018-04-14T22:05:19.323Z,76.93
2018-04-14T22:07:47.558Z,76.68
2018-04-14T22:10:15.815Z,76.97
2018-04-14T22:12:44.070Z,79.37
2018-04-14T22:15:13.087Z,80.56
2018-04-14T22:17:41.322Z,80.24
2018-04-14T22:20:10.674Z,80.75
2018-04-14T22:22:39.027Z,80.27
2018-04-14T22:25:08.043Z,80.50
2018-04-14T22:27:36.282Z,81.42
2018-04-14T22:30:04.592Z,79.13
2018-04-14T22:32:32.836Z,80.53
2018-04-14T22:35:02.596Z,81.34
2018-04-14T22:37:30.831Z,81.66
2018-04-14T22:39:59.138Z,82.28
2018-04-14T22:42:27.379Z,82.20
2018-04-14T22:44:56.627Z,81.87
2018-04-14T22:47:24.877Z,82.57
2018-04-14T22:49:53.136Z,82.03
2018-04-14T22:52:21.464Z,82.12
2018-04-14T22:54:50.802Z,80.68
2018-04-14T22:57:19.051Z,81.45
2018-04-14T22:59:48.067Z,82.03
2018-04-14T23:02:16.313Z,81.98
2018-04-14T23:04:45.336Z,83.05
2018-04-14T23:07:13.570Z,82.32
2018-04-14T23:09:41.823Z,82.77
2018-04-14T23:12:10.078Z,82.81
2018-04-14T23:14:38.319Z,83.13
2018-04-14T23:17:06.576Z,83.44
2018-04-14T23:19:34.824Z,83.81
2018-04-14T23:22:03.084Z,84.00
2018-04-14T23:24:32.101Z,84.15
2018-04-14T23:27:00.348Z,84.54
2018-04-14T23:29:29.354Z,85.37
2018-04-14T23:31:57.760Z,84.64
2018-04-14T23:34:25.995Z,84.79
2018-04-14T23:36:54.484Z,84.04
2018-04-14T23:39:22.727Z,84.16
2018-04-14T23:41:50.968Z,84.77
2018-04-14T23:44:19.987Z,84.69
2018-04-14T23:46:48.243Z,85.24
2018-04-14T23:49:17.337Z,85.09
2018-04-14T23:51:46.369Z,84.11
2018-04-14T23:54:14.727Z,85.68
2018-04-14T23:56:43.742Z,85.59
2018-04-14T23:59:11.982Z,85.50
